Yaupon Beach, North Carolina
Current Conditions -  °F | °C
As of 1:55 AM on Sunday 26 Oct 2014 (Local Time) from KSUT Reporting Station
Clear Clear  
Wind Chill: 15°   Ceiling: Unl
Heat Index: 15°   Visibility: 10mi
Dew Point:   Wind: 7mph
Humidity: 61%   Direction: 270°W
Pressure: 29.89"   Gusts: NA
Location:  33.9216°N, 78.1244°W
Report Text: KSUT 260555Z AUTO 27006KT 10SM CLR 15/07 A2989 RMK AO2 T01450071 10169 20125 402290087
Loading
Personal Weather Stations






























Interactive Weather Map
Tropical Storm Tracking
New forecast layout! Learn more

10-Day Weather Forecast

Advertisements
Track Severe Weather on mobile